sensor_id;sensor_type;location;lat;lon;timestamp;pressure;altitude;pressure_sealevel;temperature;humidity
77871;BME280;67067;46.850;7.578;2023-03-19T00:00:49;95168.75;;;7.99;42.83
77871;BME280;67067;46.850;7.578;2023-03-19T00:01:54;95173.06;;;8.05;42.86
77871;BME280;67067;46.850;7.578;2023-03-19T00:02:58;95169.88;;;8.03;41.98
77871;BME280;67067;46.850;7.578;2023-03-19T00:04:00;95177.78;;;8.03;41.58
77871;BME280;67067;46.850;7.578;2023-03-19T00:05:02;95177.50;;;7.87;41.84
77871;BME280;67067;46.850;7.578;2023-03-19T00:06:04;95176.66;;;7.99;40.62
77871;BME280;67067;46.850;7.578;2023-03-19T00:07:07;95174.69;;;8.06;39.78
77871;BME280;67067;46.850;7.578;2023-03-19T00:08:11;95177.91;;;8.08;39.60
77871;BME280;67067;46.850;7.578;2023-03-19T00:09:12;95183.53;;;8.00;39.82
77871;BME280;67067;46.850;7.578;2023-03-19T00:10:16;95183.47;;;8.12;40.00
77871;BME280;67067;46.850;7.578;2023-03-19T00:11:18;95188.06;;;8.16;40.15
77871;BME280;67067;46.850;7.578;2023-03-19T00:12:20;95184.44;;;8.05;40.21
77871;BME280;67067;46.850;7.578;2023-03-19T00:13:22;95186.69;;;8.14;39.83
77871;BME280;67067;46.850;7.578;2023-03-19T00:14:24;95184.94;;;8.19;39.22
77871;BME280;67067;46.850;7.578;2023-03-19T00:15:26;95191.38;;;8.24;39.09
77871;BME280;67067;46.850;7.578;2023-03-19T00:16:27;95182.19;;;8.26;39.07
77871;BME280;67067;46.850;7.578;2023-03-19T00:17:29;95188.84;;;8.17;38.99
77871;BME280;67067;46.850;7.578;2023-03-19T00:18:31;95192.50;;;8.28;38.58
77871;BME280;67067;46.850;7.578;2023-03-19T00:19:37;95192.59;;;8.33;38.00
77871;BME280;67067;46.850;7.578;2023-03-19T00:20:39;95191.06;;;8.37;37.07
77871;BME280;67067;46.850;7.578;2023-03-19T00:21:41;95191.47;;;8.17;36.77
77871;BME280;67067;46.850;7.578;2023-03-19T00:22:43;95186.59;;;8.20;36.89
77871;BME280;67067;46.850;7.578;2023-03-19T00:23:44;95189.38;;;8.31;36.61
77871;BME280;67067;46.850;7.578;2023-03-19T00:24:46;95192.84;;;8.48;36.41
77871;BME280;67067;46.850;7.578;2023-03-19T00:25:49;95197.50;;;8.58;36.41
77871;BME280;67067;46.850;7.578;2023-03-19T00:26:50;95196.59;;;8.53;36.46
77871;BME280;67067;46.850;7.578;2023-03-19T00:27:52;95193.81;;;8.59;36.00
77871;BME280;67067;46.850;7.578;2023-03-19T00:28:55;95196.53;;;8.64;36.25
77871;BME280;67067;46.850;7.578;2023-03-19T00:29:57;95197.31;;;8.65;36.14
77871;BME280;67067;46.850;7.578;2023-03-19T00:31:11;95204.19;;;8.66;36.30
77871;BME280;67067;46.850;7.578;2023-03-19T00:32:15;95199.09;;;8.76;35.99
77871;BME280;67067;46.850;7.578;2023-03-19T00:33:22;95202.28;;;8.78;36.11
77871;BME280;67067;46.850;7.578;2023-03-19T00:34:23;95200.78;;;8.83;35.87
77871;BME280;67067;46.850;7.578;2023-03-19T00:35:25;95194.03;;;8.75;36.15
77871;BME280;67067;46.850;7.578;2023-03-19T00:36:28;95201.34;;;8.85;36.01
77871;BME280;67067;46.850;7.578;2023-03-19T00:37:31;95198.22;;;8.88;36.03
77871;BME280;67067;46.850;7.578;2023-03-19T00:38:36;95215.56;;;8.84;35.99
77871;BME280;67067;46.850;7.578;2023-03-19T00:39:38;95200.28;;;8.86;35.96
77871;BME280;67067;46.850;7.578;2023-03-19T00:40:40;95199.47;;;8.85;35.79
77871;BME280;67067;46.850;7.578;2023-03-19T00:41:43;95195.88;;;8.91;35.65
77871;BME280;67067;46.850;7.578;2023-03-19T00:42:53;95201.22;;;8.97;35.68
77871;BME280;67067;46.850;7.578;2023-03-19T00:43:55;95200.50;;;9.01;35.86
77871;BME280;67067;46.850;7.578;2023-03-19T00:45:00;95202.41;;;9.06;35.84
77871;BME280;67067;46.850;7.578;2023-03-19T00:46:02;95197.13;;;9.06;36.21
77871;BME280;67067;46.850;7.578;2023-03-19T00:47:04;95203.56;;;9.10;36.34
77871;BME280;67067;46.850;7.578;2023-03-19T00:48:07;95201.94;;;9.09;36.23
77871;BME280;67067;46.850;7.578;2023-03-19T00:49:09;95197.81;;;8.96;36.55
77871;BME280;67067;46.850;7.578;2023-03-19T00:50:11;95200.81;;;9.05;36.39
77871;BME280;67067;46.850;7.578;2023-03-19T00:51:12;95199.53;;;9.07;36.45
77871;BME280;67067;46.850;7.578;2023-03-19T00:52:14;95196.97;;;8.96;36.79
77871;BME280;67067;46.850;7.578;2023-03-19T00:53:16;95198.97;;;9.05;36.47
77871;BME280;67067;46.850;7.578;2023-03-19T00:54:18;95200.09;;;9.10;36.43
77871;BME280;67067;46.850;7.578;2023-03-19T00:55:23;95206.75;;;9.12;36.52
77871;BME280;67067;46.850;7.578;2023-03-19T00:56:26;95203.28;;;9.12;36.24
77871;BME280;67067;46.850;7.578;2023-03-19T00:57:27;95206.41;;;9.08;36.40
77871;BME280;67067;46.850;7.578;2023-03-19T00:58:29;95206.28;;;8.98;36.42
77871;BME280;67067;46.850;7.578;2023-03-19T00:59:31;95203.72;;;9.03;36.54
77871;BME280;67067;46.850;7.578;2023-03-19T01:00:33;95201.28;;;9.02;36.52
77871;BME280;67067;46.850;7.578;2023-03-19T01:01:33;95201.00;;;8.98;36.85
77871;BME280;67067;46.850;7.578;2023-03-19T01:02:36;95201.78;;;8.99;36.68
77871;BME280;67067;46.850;7.578;2023-03-19T01:03:37;95206.84;;;8.83;37.11
77871;BME280;67067;46.850;7.578;2023-03-19T01:04:39;95212.53;;;8.92;37.42
77871;BME280;67067;46.850;7.578;2023-03-19T01:05:41;95208.84;;;8.93;37.28
77871;BME280;67067;46.850;7.578;2023-03-19T01:06:43;95217.00;;;8.91;37.37
77871;BME280;67067;46.850;7.578;2023-03-19T01:07:44;95215.38;;;8.73;37.82
77871;BME280;67067;46.850;7.578;2023-03-19T01:08:49;95215.78;;;8.82;37.87
77871;BME280;67067;46.850;7.578;2023-03-19T01:09:51;95210.78;;;8.81;37.87
77871;BME280;67067;46.850;7.578;2023-03-19T01:10:53;95210.44;;;8.60;38.15
77871;BME280;67067;46.850;7.578;2023-03-19T01:11:55;95213.47;;;8.69;37.81
77871;BME280;67067;46.850;7.578;2023-03-19T01:12:56;95212.19;;;8.71;37.96
77871;BME280;67067;46.850;7.578;2023-03-19T01:13:58;95218.28;;;8.72;37.80
77871;BME280;67067;46.850;7.578;2023-03-19T01:15:00;95216.25;;;8.62;38.26
77871;BME280;67067;46.850;7.578;2023-03-19T01:16:03;95208.66;;;8.48;38.96
77871;BME280;67067;46.850;7.578;2023-03-19T01:17:07;95211.31;;;8.48;38.83
77871;BME280;67067;46.850;7.578;2023-03-19T01:18:11;95216.00;;;8.46;39.01
77871;BME280;67067;46.850;7.578;2023-03-19T01:19:18;95209.13;;;8.45;39.09
77871;BME280;67067;46.850;7.578;2023-03-19T01:20:23;95215.84;;;8.36;39.13
77871;BME280;67067;46.850;7.578;2023-03-19T01:21:27;95213.06;;;8.43;39.13
77871;BME280;67067;46.850;7.578;2023-03-19T01:22:36;95208.34;;;8.45;38.50
77871;BME280;67067;46.850;7.578;2023-03-19T01:23:40;95206.28;;;8.47;38.69
77871;BME280;67067;46.850;7.578;2023-03-19T01:24:42;95208.97;;;8.35;38.46
77871;BME280;67067;46.850;7.578;2023-03-19T01:25:44;95210.25;;;8.49;38.11
77871;BME280;67067;46.850;7.578;2023-03-19T01:26:46;95208.19;;;8.52;38.34
77871;BME280;67067;46.850;7.578;2023-03-19T01:28:01;95213.78;;;8.55;37.87
77871;BME280;67067;46.850;7.578;2023-03-19T01:29:03;95200.34;;;8.57;37.83
77871;BME280;67067;46.850;7.578;2023-03-19T01:30:05;95198.44;;;8.52;37.91
77871;BME280;67067;46.850;7.578;2023-03-19T01:31:46;95208.81;;;8.59;37.77
77871;BME280;67067;46.850;7.578;2023-03-19T01:33:06;95210.44;;;8.60;37.86
77871;BME280;67067;46.850;7.578;2023-03-19T01:34:14;95204.66;;;8.63;37.75
77871;BME280;67067;46.850;7.578;2023-03-19T01:35:23;95207.88;;;8.65;37.82
77871;BME280;67067;46.850;7.578;2023-03-19T01:36:24;95204.50;;;8.53;38.08
77871;BME280;67067;46.850;7.578;2023-03-19T01:37:40;95198.91;;;8.66;37.78
77871;BME280;67067;46.850;7.578;2023-03-19T01:38:42;95199.47;;;8.68;37.77
77871;BME280;67067;46.850;7.578;2023-03-19T01:39:48;95201.31;;;8.68;37.92
77871;BME280;67067;46.850;7.578;2023-03-19T01:40:50;95202.19;;;8.73;37.87
77871;BME280;67067;46.850;7.578;2023-03-19T01:41:53;95200.38;;;8.74;38.17
77871;BME280;67067;46.850;7.578;2023-03-19T01:43:21;95198.44;;;8.69;38.11
77871;BME280;67067;46.850;7.578;2023-03-19T01:44:30;95205.31;;;8.70;38.40
77871;BME280;67067;46.850;7.578;2023-03-19T01:45:57;95206.34;;;8.69;37.92
77871;BME280;67067;46.850;7.578;2023-03-19T01:47:30;95212.19;;;8.71;38.00
77871;BME280;67067;46.850;7.578;2023-03-19T01:48:58;95206.47;;;8.74;37.93
77871;BME280;67067;46.850;7.578;2023-03-19T01:50:04;95204.81;;;8.73;38.35
77871;BME280;67067;46.850;7.578;2023-03-19T01:51:09;95204.81;;;8.73;38.24
77871;BME280;67067;46.850;7.578;2023-03-19T01:52:33;95209.00;;;8.69;38.54
77871;BME280;67067;46.850;7.578;2023-03-19T01:53:58;95204.19;;;8.66;38.50
77871;BME280;67067;46.850;7.578;2023-03-19T01:55:11;95211.88;;;8.68;38.96
77871;BME280;67067;46.850;7.578;2023-03-19T01:56:33;95200.69;;;8.60;38.96
77871;BME280;67067;46.850;7.578;2023-03-19T01:58:00;95204.59;;;8.58;38.63
77871;BME280;67067;46.850;7.578;2023-03-19T02:00:46;95201.72;;;8.59;38.50
77871;BME280;67067;46.850;7.578;2023-03-19T02:01:54;95199.72;;;8.49;38.44
77871;BME280;67067;46.850;7.578;2023-03-19T02:02:59;95201.16;;;8.57;38.57
77871;BME280;67067;46.850;7.578;2023-03-19T02:04:20;95202.50;;;8.60;38.81
77871;BME280;67067;46.850;7.578;2023-03-19T02:05:23;95190.63;;;8.57;38.54
77871;BME280;67067;46.850;7.578;2023-03-19T02:06:36;95196.50;;;8.47;38.87
77871;BME280;67067;46.850;7.578;2023-03-19T02:07:42;95189.25;;;8.55;37.96
77871;BME280;67067;46.850;7.578;2023-03-19T02:08:46;95193.81;;;8.59;38.20
77871;BME280;67067;46.850;7.578;2023-03-19T02:09:49;95194.53;;;8.55;38.08
77871;BME280;67067;46.850;7.578;2023-03-19T02:10:52;95191.47;;;8.63;38.07
77871;BME280;67067;46.850;7.578;2023-03-19T02:11:56;95195.97;;;8.62;38.19
77871;BME280;67067;46.850;7.578;2023-03-19T02:12:59;95202.03;;;8.63;38.14
77871;BME280;67067;46.850;7.578;2023-03-19T02:14:01;95197.00;;;8.61;38.46
77871;BME280;67067;46.850;7.578;2023-03-19T02:15:04;95204.19;;;8.66;38.19
77871;BME280;67067;46.850;7.578;2023-03-19T02:16:09;95201.47;;;8.61;38.29
77871;BME280;67067;46.850;7.578;2023-03-19T02:17:15;95203.41;;;8.66;38.28
77871;BME280;67067;46.850;7.578;2023-03-19T02:18:20;95205.22;;;8.65;38.09
77871;BME280;67067;46.850;7.578;2023-03-19T02:19:49;95217.63;;;8.64;38.31
77871;BME280;67067;46.850;7.578;2023-03-19T02:21:00;95204.19;;;8.66;38.47
77871;BME280;67067;46.850;7.578;2023-03-19T02:22:09;95213.97;;;8.66;38.60
77871;BME280;67067;46.850;7.578;2023-03-19T02:25:18;95218.25;;;8.55;38.70
77871;BME280;67067;46.850;7.578;2023-03-19T02:26:23;95199.56;;;8.56;38.88
77871;BME280;67067;46.850;7.578;2023-03-19T02:27:32;95211.53;;;8.64;38.77
77871;BME280;67067;46.850;7.578;2023-03-19T02:28:40;95207.31;;;8.63;38.64
77871;BME280;67067;46.850;7.578;2023-03-19T02:29:43;95205.72;;;8.62;38.86
77871;BME280;67067;46.850;7.578;2023-03-19T02:30:44;95210.25;;;8.49;38.99
77871;BME280;67067;46.850;7.578;2023-03-19T02:31:49;95210.19;;;8.61;38.80
77871;BME280;67067;46.850;7.578;2023-03-19T02:32:51;95206.75;;;8.61;38.85
77871;BME280;67067;46.850;7.578;2023-03-19T02:33:59;95211.31;;;8.48;38.86
77871;BME280;67067;46.850;7.578;2023-03-19T02:35:01;95208.81;;;8.59;38.46
77871;BME280;67067;46.850;7.578;2023-03-19T02:36:04;95213.38;;;8.46;39.06
77871;BME280;67067;46.850;7.578;2023-03-19T02:37:19;95207.41;;;8.51;39.00
77871;BME280;67067;46.850;7.578;2023-03-19T02:38:24;95204.59;;;8.58;38.62
77871;BME280;67067;46.850;7.578;2023-03-19T02:39:54;95214.84;;;8.54;39.11
77871;BME280;67067;46.850;7.578;2023-03-19T02:41:00;95214.28;;;8.52;38.84
77871;BME280;67067;46.850;7.578;2023-03-19T02:42:03;95211.38;;;8.54;38.51
77871;BME280;67067;46.850;7.578;2023-03-19T02:43:06;95214.59;;;8.56;38.90
77871;BME280;67067;46.850;7.578;2023-03-19T02:44:10;95211.94;;;8.56;38.62
77871;BME280;67067;46.850;7.578;2023-03-19T02:45:13;95211.72;;;8.57;38.53
77871;BME280;67067;46.850;7.578;2023-03-19T02:46:17;95214.19;;;8.64;38.30
77871;BME280;67067;46.850;7.578;2023-03-19T02:47:19;95220.81;;;8.49;38.78
77871;BME280;67067;46.850;7.578;2023-03-19T02:48:23;95220.97;;;8.60;38.50
77871;BME280;67067;46.850;7.578;2023-03-19T02:49:25;95216.09;;;8.52;38.60
77871;BME280;67067;46.850;7.578;2023-03-19T02:50:27;95218.41;;;8.65;38.40
77871;BME280;67067;46.850;7.578;2023-03-19T02:51:29;95217.94;;;8.68;38.38
77871;BME280;67067;46.850;7.578;2023-03-19T02:52:31;95214.81;;;8.71;38.31
77871;BME280;67067;46.850;7.578;2023-03-19T02:53:35;95220.34;;;8.70;38.28
77871;BME280;67067;46.850;7.578;2023-03-19T02:54:37;95217.00;;;8.74;38.50
77871;BME280;67067;46.850;7.578;2023-03-19T02:55:38;95215.38;;;8.73;38.35
77871;BME280;67067;46.850;7.578;2023-03-19T02:56:41;95215.97;;;8.75;38.21
77871;BME280;67067;46.850;7.578;2023-03-19T02:57:44;95218.63;;;8.75;38.33
77871;BME280;67067;46.850;7.578;2023-03-19T02:58:48;95219.53;;;8.69;38.52
77871;BME280;67067;46.850;7.578;2023-03-19T02:59:49;95216.75;;;8.59;38.53
77871;BME280;67067;46.850;7.578;2023-03-19T03:00:51;95218.75;;;8.69;38.97
77871;BME280;67067;46.850;7.578;2023-03-19T03:01:56;95218.50;;;8.70;38.76
77871;BME280;67067;46.850;7.578;2023-03-19T03:03:00;95219.06;;;8.72;38.62
77871;BME280;67067;46.850;7.578;2023-03-19T03:04:04;95216.91;;;8.69;38.71
77871;BME280;67067;46.850;7.578;2023-03-19T03:05:06;95217.94;;;8.68;38.86
77871;BME280;67067;46.850;7.578;2023-03-19T03:06:10;95213.47;;;8.69;39.12
77871;BME280;67067;46.850;7.578;2023-03-19T03:07:14;95214.25;;;8.69;39.22
77871;BME280;67067;46.850;7.578;2023-03-19T03:08:16;95217.38;;;8.66;39.01
77871;BME280;67067;46.850;7.578;2023-03-19T03:09:21;95215.09;;;8.70;39.31
77871;BME280;67067;46.850;7.578;2023-03-19T03:10:26;95215.31;;;8.68;39.33
77871;BME280;67067;46.850;7.578;2023-03-19T03:11:28;95214.75;;;8.66;39.41
77871;BME280;67067;46.850;7.578;2023-03-19T03:12:30;95213.06;;;8.60;39.64
77871;BME280;67067;46.850;7.578;2023-03-19T03:13:32;95211.31;;;8.48;39.67
77871;BME280;67067;46.850;7.578;2023-03-19T03:14:34;95218.59;;;8.58;39.43
77871;BME280;67067;46.850;7.578;2023-03-19T03:15:36;95219.84;;;8.56;39.64
77871;BME280;67067;46.850;7.578;2023-03-19T03:16:38;95216.66;;;8.54;39.66
77871;BME280;67067;46.850;7.578;2023-03-19T03:17:41;95215.41;;;8.56;39.94
77871;BME280;67067;46.850;7.578;2023-03-19T03:18:43;95217.47;;;8.54;39.88
77871;BME280;67067;46.850;7.578;2023-03-19T03:19:45;95209.63;;;8.42;39.99
77871;BME280;67067;46.850;7.578;2023-03-19T03:20:48;95208.19;;;8.52;39.94
77871;BME280;67067;46.850;7.578;2023-03-19T03:21:49;95210.88;;;8.40;39.93
77871;BME280;67067;46.850;7.578;2023-03-19T03:22:51;95213.94;;;8.48;39.72
77871;BME280;67067;46.850;7.578;2023-03-19T03:23:56;95211.56;;;8.47;40.03
77871;BME280;67067;46.850;7.578;2023-03-19T03:24:58;95213.63;;;8.45;40.27
77871;BME280;67067;46.850;7.578;2023-03-19T03:25:59;95215.50;;;8.32;40.24
77871;BME280;67067;46.850;7.578;2023-03-19T03:27:03;95216.50;;;8.43;40.46
77871;BME280;67067;46.850;7.578;2023-03-19T03:28:04;95219.19;;;8.31;40.41
77871;BME280;67067;46.850;7.578;2023-03-19T03:29:07;95214.91;;;8.42;40.35
77871;BME280;67067;46.850;7.578;2023-03-19T03:30:12;95222.59;;;8.44;40.65
77871;BME280;67067;46.850;7.578;2023-03-19T03:31:16;95214.41;;;8.45;40.65
77871;BME280;67067;46.850;7.578;2023-03-19T03:32:18;95220.72;;;8.44;40.88
77871;BME280;67067;46.850;7.578;2023-03-19T03:33:20;95220.00;;;8.32;40.73
77871;BME280;67067;46.850;7.578;2023-03-19T03:34:22;95226.47;;;8.41;40.53
77871;BME280;67067;46.850;7.578;2023-03-19T03:35:23;95224.44;;;8.31;40.72
77871;BME280;67067;46.850;7.578;2023-03-19T03:36:25;95224.41;;;8.43;41.03
77871;BME280;67067;46.850;7.578;2023-03-19T03:37:27;95228.09;;;8.42;40.95
77871;BME280;67067;46.850;7.578;2023-03-19T03:38:29;95220.66;;;8.39;41.47
77871;BME280;67067;46.850;7.578;2023-03-19T03:39:33;95227.53;;;8.40;41.45
77871;BME280;67067;46.850;7.578;2023-03-19T03:40:34;95227.66;;;8.33;41.76
77871;BME280;67067;46.850;7.578;2023-03-19T03:41:37;95229.72;;;8.31;41.59
77871;BME280;67067;46.850;7.578;2023-03-19T03:42:42;95236.84;;;8.31;41.98
77871;BME280;67067;46.850;7.578;2023-03-19T03:43:47;95227.34;;;8.30;42.09
77871;BME280;67067;46.850;7.578;2023-03-19T03:44:49;95231.88;;;8.05;42.69
77871;BME280;67067;46.850;7.578;2023-03-19T03:45:53;95229.13;;;8.12;42.82
77871;BME280;67067;46.850;7.578;2023-03-19T03:46:55;95229.81;;;8.07;43.03
77871;BME280;67067;46.850;7.578;2023-03-19T03:47:57;95231.41;;;8.09;43.02
77871;BME280;67067;46.850;7.578;2023-03-19T03:48:59;95231.06;;;8.05;43.56
77871;BME280;67067;46.850;7.578;2023-03-19T03:50:02;95229.72;;;8.02;43.65
77871;BME280;67067;46.850;7.578;2023-03-19T03:51:07;95225.69;;;8.00;43.12
77871;BME280;67067;46.850;7.578;2023-03-19T03:52:09;95232.81;;;7.99;43.08
77871;BME280;67067;46.850;7.578;2023-03-19T03:53:11;95225.47;;;8.01;43.27
77871;BME280;67067;46.850;7.578;2023-03-19T03:54:14;95229.00;;;8.07;43.03
77871;BME280;67067;46.850;7.578;2023-03-19T03:55:15;95234.75;;;8.04;43.66
77871;BME280;67067;46.850;7.578;2023-03-19T03:56:17;95237.16;;;8.05;43.57
77871;BME280;67067;46.850;7.578;2023-03-19T03:57:19;95233.69;;;8.05;43.68
77871;BME280;67067;46.850;7.578;2023-03-19T03:58:21;95233.69;;;8.05;43.89
77871;BME280;67067;46.850;7.578;2023-03-19T03:59:24;95232.66;;;8.06;43.54
77871;BME280;67067;46.850;7.578;2023-03-19T04:00:26;95235.78;;;8.03;43.91
77871;BME280;67067;46.850;7.578;2023-03-19T04:01:28;95231.81;;;7.88;43.97
77871;BME280;67067;46.850;7.578;2023-03-19T04:02:30;95229.94;;;8.01;43.57
77871;BME280;67067;46.850;7.578;2023-03-19T04:03:32;95230.50;;;8.03;43.92
77871;BME280;67067;46.850;7.578;2023-03-19T04:04:34;95225.22;;;8.03;43.84
77871;BME280;67067;46.850;7.578;2023-03-19T04:05:36;95233.94;;;8.03;44.10
77871;BME280;67067;46.850;7.578;2023-03-19T04:06:39;95233.13;;;8.03;43.99
77871;BME280;67067;46.850;7.578;2023-03-19T04:07:47;95229.25;;;8.05;43.99
77871;BME280;67067;46.850;7.578;2023-03-19T04:08:52;95234.16;;;8.02;44.43
77871;BME280;67067;46.850;7.578;2023-03-19T04:09:56;95236.81;;;8.02;44.12
77871;BME280;67067;46.850;7.578;2023-03-19T04:10:59;95242.09;;;8.02;44.49
77871;BME280;67067;46.850;7.578;2023-03-19T04:12:00;95237.09;;;7.88;44.34
77871;BME280;67067;46.850;7.578;2023-03-19T04:13:02;95238.56;;;7.96;44.48
77871;BME280;67067;46.850;7.578;2023-03-19T04:14:05;95240.63;;;7.94;44.59
77871;BME280;67067;46.850;7.578;2023-03-19T04:15:12;95233.97;;;7.91;44.90
77871;BME280;67067;46.850;7.578;2023-03-19T04:16:17;95241.09;;;7.91;45.32
77871;BME280;67067;46.850;7.578;2023-03-19T04:17:23;95243.97;;;7.89;45.07
77871;BME280;67067;46.850;7.578;2023-03-19T04:18:25;95239.16;;;7.86;45.26
77871;BME280;67067;46.850;7.578;2023-03-19T04:19:30;95237.00;;;7.83;45.65
77871;BME280;67067;46.850;7.578;2023-03-19T04:20:33;95233.22;;;7.79;45.48
77871;BME280;67067;46.850;7.578;2023-03-19T04:21:35;95238.03;;;7.82;45.34
77871;BME280;67067;46.850;7.578;2023-03-19T04:22:37;95239.53;;;7.66;45.25
77871;BME280;67067;46.850;7.578;2023-03-19T04:23:39;95234.16;;;7.73;45.30
77871;BME280;67067;46.850;7.578;2023-03-19T04:24:41;95235.97;;;7.72;45.55
77871;BME280;67067;46.850;7.578;2023-03-19T04:25:42;95237.72;;;7.55;45.94
77871;BME280;67067;46.850;7.578;2023-03-19T04:26:44;95238.19;;;7.63;45.91
77871;BME280;67067;46.850;7.578;2023-03-19T04:27:49;95236.59;;;7.62;45.66
77871;BME280;67067;46.850;7.578;2023-03-19T04:28:51;95242.06;;;7.61;45.87
77871;BME280;67067;46.850;7.578;2023-03-19T04:29:53;95243.34;;;7.58;45.65
77871;BME280;67067;46.850;7.578;2023-03-19T04:31:06;95240.94;;;7.57;45.63
77871;BME280;67067;46.850;7.578;2023-03-19T04:32:12;95244.97;;;7.59;45.69
77871;BME280;67067;46.850;7.578;2023-03-19T04:33:16;95241.75;;;7.57;45.60
77871;BME280;67067;46.850;7.578;2023-03-19T04:34:18;95232.72;;;7.53;45.80
77871;BME280;67067;46.850;7.578;2023-03-19T04:35:20;95239.59;;;7.42;46.00
77871;BME280;67067;46.850;7.578;2023-03-19T04:36:23;95239.78;;;7.53;45.57
77871;BME280;67067;46.850;7.578;2023-03-19T04:37:27;95242.22;;;7.54;45.88
77871;BME280;67067;46.850;7.578;2023-03-19T04:38:29;95250.56;;;7.51;46.19
77871;BME280;67067;46.850;7.578;2023-03-19T04:39:35;95243.59;;;7.45;46.27
77871;BME280;67067;46.850;7.578;2023-03-19T04:40:37;95247.28;;;7.44;46.34
77871;BME280;67067;46.850;7.578;2023-03-19T04:41:39;95242.22;;;7.42;46.44
77871;BME280;67067;46.850;7.578;2023-03-19T04:43:04;95243.47;;;7.40;46.52
77871;BME280;67067;46.850;7.578;2023-03-19T04:44:10;95243.94;;;7.37;46.23
77871;BME280;67067;46.850;7.578;2023-03-19T04:45:13;95244.19;;;7.35;46.56
77871;BME280;67067;46.850;7.578;2023-03-19T04:46:16;95245.53;;;7.38;46.35
77871;BME280;67067;46.850;7.578;2023-03-19T04:47:17;95246.13;;;7.16;46.76
77871;BME280;67067;46.850;7.578;2023-03-19T04:48:27;95244.41;;;7.22;46.82
77871;BME280;67067;46.850;7.578;2023-03-19T04:49:29;95245.22;;;7.22;46.72
77871;BME280;67067;46.850;7.578;2023-03-19T04:50:31;95244.16;;;7.23;46.88
77871;BME280;67067;46.850;7.578;2023-03-19T04:51:34;95239.94;;;7.22;46.71
77871;BME280;67067;46.850;7.578;2023-03-19T04:52:36;95242.81;;;7.09;46.96
77871;BME280;67067;46.850;7.578;2023-03-19T04:53:38;95244.63;;;7.20;46.55
77871;BME280;67067;46.850;7.578;2023-03-19T04:54:40;95246.81;;;7.23;46.61
77871;BME280;67067;46.850;7.578;2023-03-19T04:55:42;95251.28;;;7.23;46.59
77871;BME280;67067;46.850;7.578;2023-03-19T04:56:50;95242.81;;;7.21;46.33
77871;BME280;67067;46.850;7.578;2023-03-19T04:57:56;95248.06;;;7.21;46.57
77871;BME280;67067;46.850;7.578;2023-03-19T04:59:01;95251.75;;;7.19;46.59
77871;BME280;67067;46.850;7.578;2023-03-19T05:00:03;95249.31;;;7.18;46.75
77871;BME280;67067;46.850;7.578;2023-03-19T05:01:11;95248.63;;;7.11;47.08
77871;BME280;67067;46.850;7.578;2023-03-19T05:02:31;95251.16;;;7.06;47.28
77871;BME280;67067;46.850;7.578;2023-03-19T05:03:36;95251.25;;;6.99;47.18
77871;BME280;67067;46.850;7.578;2023-03-19T05:04:38;95247.72;;;6.93;47.51
77871;BME280;67067;46.850;7.578;2023-03-19T05:05:43;95247.56;;;6.88;47.79
77871;BME280;67067;46.850;7.578;2023-03-19T05:06:47;95250.88;;;6.83;47.89
77871;BME280;67067;46.850;7.578;2023-03-19T05:07:51;95242.88;;;6.78;48.09
77871;BME280;67067;46.850;7.578;2023-03-19T05:08:53;95248.53;;;6.63;47.84
77871;BME280;67067;46.850;7.578;2023-03-19T05:09:56;95245.81;;;6.70;47.81
77871;BME280;67067;46.850;7.578;2023-03-19T05:11:00;95240.31;;;6.71;47.78
77871;BME280;67067;46.850;7.578;2023-03-19T05:12:08;95250.84;;;6.71;47.56
77871;BME280;67067;46.850;7.578;2023-03-19T05:13:16;95253.34;;;6.66;47.63
77871;BME280;67067;46.850;7.578;2023-03-19T05:14:23;95254.75;;;6.69;47.97
77871;BME280;67067;46.850;7.578;2023-03-19T05:15:33;95253.34;;;6.66;47.86
77871;BME280;67067;46.850;7.578;2023-03-19T05:16:39;95251.28;;;6.68;47.53
77871;BME280;67067;46.850;7.578;2023-03-19T05:17:41;95250.97;;;6.65;47.42
77871;BME280;67067;46.850;7.578;2023-03-19T05:18:49;95253.13;;;6.68;47.37
77871;BME280;67067;46.850;7.578;2023-03-19T05:19:51;95258.72;;;6.71;47.35
77871;BME280;67067;46.850;7.578;2023-03-19T05:20:55;95247.63;;;6.69;47.57
77871;BME280;67067;46.850;7.578;2023-03-19T05:21:59;95255.31;;;6.71;47.39
77871;BME280;67067;46.850;7.578;2023-03-19T05:23:02;95255.31;;;6.71;47.34
77871;BME280;67067;46.850;7.578;2023-03-19T05:24:11;95248.00;;;6.73;47.59
77871;BME280;67067;46.850;7.578;2023-03-19T05:25:13;95257.28;;;6.75;47.45
77871;BME280;67067;46.850;7.578;2023-03-19T05:26:15;95257.63;;;6.79;47.25
77871;BME280;67067;46.850;7.578;2023-03-19T05:27:51;95257.63;;;6.79;47.70
77871;BME280;67067;46.850;7.578;2023-03-19T05:28:59;95262.22;;;6.84;47.62
77871;BME280;67067;46.850;7.578;2023-03-19T05:30:11;95261.31;;;6.90;47.67
77871;BME280;67067;46.850;7.578;2023-03-19T05:31:31;95263.38;;;6.88;47.38
77871;BME280;67067;46.850;7.578;2023-03-19T05:32:33;95266.78;;;6.88;47.56
77871;BME280;67067;46.850;7.578;2023-03-19T05:33:37;95263.94;;;6.90;47.53
77871;BME280;67067;46.850;7.578;2023-03-19T05:34:41;95263.50;;;6.93;47.33
77871;BME280;67067;46.850;7.578;2023-03-19T05:35:44;95269.09;;;6.97;47.14
77871;BME280;67067;46.850;7.578;2023-03-19T05:36:59;95272.31;;;6.99;47.26
77871;BME280;67067;46.850;7.578;2023-03-19T05:38:01;95268.44;;;7.01;47.16
77871;BME280;67067;46.850;7.578;2023-03-19T05:39:06;95276.34;;;7.01;47.16
77871;BME280;67067;46.850;7.578;2023-03-19T05:40:11;95275.63;;;7.06;47.46
77871;BME280;67067;46.850;7.578;2023-03-19T05:41:16;95268.56;;;7.07;47.16
77871;BME280;67067;46.850;7.578;2023-03-19T05:42:30;95267.75;;;7.06;46.96
77871;BME280;67067;46.850;7.578;2023-03-19T05:43:32;95267.31;;;7.09;46.96
77871;BME280;67067;46.850;7.578;2023-03-19T05:44:38;95275.22;;;7.09;47.06
77871;BME280;67067;46.850;7.578;2023-03-19T05:45:59;95264.06;;;7.07;46.89
77871;BME280;67067;46.850;7.578;2023-03-19T05:47:05;95273.47;;;7.03;47.23
77871;BME280;67067;46.850;7.578;2023-03-19T05:48:10;95271.97;;;6.95;47.70
77871;BME280;67067;46.850;7.578;2023-03-19T05:49:16;95274.47;;;6.90;47.75
77871;BME280;67067;46.850;7.578;2023-03-19T05:50:18;95271.25;;;6.88;48.06
77871;BME280;67067;46.850;7.578;2023-03-19T05:51:42;95276.28;;;6.78;48.18
77871;BME280;67067;46.850;7.578;2023-03-19T05:52:47;95271.13;;;6.83;48.15